Poplar Grove, Illinois
Current Conditions -  °F | °C
As of 9:54 AM on Thursday 30 Oct 2014 (Local Time) from KRFD Reporting Station
Overcast Overcast  
Wind Chill: 40°   Ceiling: 11000
Heat Index: 40°   Visibility: 10mi
Dew Point: 34°   Wind: 3mph
Humidity: 79%   Direction: 210°SSW
Pressure: 30.13"   Gusts: NA
Location:  42.37°N, 88.82°W
Report Text: KRFD 301454Z 21003KT 10SM FEW080 BKN110 OVC160 04/01 A3013 RMK AO2 SLP210 T00440011 50001
Loading
Personal Weather Stations






























Interactive Weather Map
Tropical Storm Tracking
New forecast layout! Learn more

10-Day Weather Forecast

Advertisements
Track Severe Weather on mobile